createdAt,value
2019-02-04T00:00:47.219Z,944.55
2019-02-04T00:01:47.967Z,944.55
2019-02-04T00:02:49.400Z,944.55
2019-02-04T00:03:50.393Z,944.53
2019-02-04T00:04:51.295Z,944.58
2019-02-04T00:05:51.810Z,944.55
2019-02-04T00:06:52.794Z,944.58
2019-02-04T00:07:53.900Z,944.61
2019-02-04T00:08:55.059Z,944.62
2019-02-04T00:09:55.761Z,944.59
2019-02-04T00:10:59.714Z,944.66
2019-02-04T00:12:00.086Z,944.67
2019-02-04T00:13:00.553Z,944.74
2019-02-04T00:14:01.031Z,944.72
2019-02-04T00:15:01.793Z,944.71
2019-02-04T00:16:02.510Z,944.75
2019-02-04T00:17:03.224Z,944.74
2019-02-04T00:18:03.817Z,944.75
2019-02-04T00:19:04.847Z,944.73
2019-02-04T00:20:06.003Z,944.78
2019-02-04T00:21:06.528Z,944.76
2019-02-04T00:22:06.981Z,944.74
2019-02-04T00:23:08.717Z,944.77
2019-02-04T00:24:09.071Z,944.76
2019-02-04T00:25:10.321Z,944.82
2019-02-04T00:26:11.148Z,944.77
2019-02-04T00:27:11.845Z,944.79
2019-02-04T00:28:12.226Z,944.81
2019-02-04T00:29:13.195Z,944.84
2019-02-04T00:30:14.169Z,944.84
2019-02-04T00:31:14.866Z,944.82
2019-02-04T00:32:16.021Z,944.78
2019-02-04T00:33:16.350Z,944.83
2019-02-04T00:34:16.874Z,944.82
2019-02-04T00:35:18.296Z,944.87
2019-02-04T00:36:19.134Z,944.88
2019-02-04T00:37:20.129Z,944.92
2019-02-04T00:38:20.998Z,944.9
2019-02-04T00:39:21.440Z,944.95
2019-02-04T00:40:22.637Z,944.95
2019-02-04T00:41:23.258Z,944.95
2019-02-04T00:42:23.466Z,944.94
2019-02-04T00:43:24.631Z,944.99
2019-02-04T00:44:25.064Z,945
2019-02-04T00:45:25.507Z,944.96
2019-02-04T00:46:26.520Z,944.96
2019-02-04T00:47:26.951Z,945
2019-02-04T00:48:28.086Z,944.98
2019-02-04T00:49:29.581Z,945
2019-02-04T00:50:29.799Z,944.99
2019-02-04T00:51:31.232Z,945.02
2019-02-04T00:52:32.211Z,945
2019-02-04T00:53:33.370Z,945.02
2019-02-04T00:54:33.856Z,945.02
2019-02-04T00:55:34.225Z,945.02
2019-02-04T00:56:34.738Z,945.06
2019-02-04T00:57:35.712Z,945.03
2019-02-04T00:58:36.851Z,945.05
2019-02-04T00:59:37.585Z,945.08
2019-02-04T01:00:38.735Z,945.09
2019-02-04T01:01:39.481Z,945.1
2019-02-04T01:02:40.029Z,945.12
2019-02-04T01:03:40.459Z,945.12
2019-02-04T01:04:41.175Z,945.15
2019-02-04T01:05:42.488Z,945.16
2019-02-04T01:06:43.351Z,945.16
2019-02-04T01:07:44.163Z,945.2
2019-02-04T01:08:45.044Z,945.19
2019-02-04T01:09:46.308Z,945.21
2019-02-04T01:10:47.272Z,945.25
2019-02-04T01:11:48.686Z,945.19
2019-02-04T01:12:49.107Z,945.19
2019-02-04T01:13:49.814Z,945.23
2019-02-04T01:14:50.223Z,945.24
2019-02-04T01:15:51.747Z,945.2
2019-02-04T01:17:04.913Z,945.25
2019-02-04T01:18:05.866Z,945.22
2019-02-04T01:19:06.479Z,945.3
2019-02-04T01:20:07.183Z,945.27
2019-02-04T01:21:08.165Z,945.26
2019-02-04T01:22:08.877Z,945.36
2019-02-04T01:23:09.861Z,945.3
2019-02-04T01:24:10.315Z,945.29
2019-02-04T01:25:11.017Z,945.34
2019-02-04T01:26:11.720Z,945.33
2019-02-04T01:27:12.139Z,945.33
2019-02-04T01:28:12.436Z,945.36
2019-02-04T01:29:13.704Z,945.28
2019-02-04T01:30:14.397Z,945.32
2019-02-04T01:31:15.106Z,945.32
2019-02-04T01:32:16.258Z,945.28
2019-02-04T01:33:16.949Z,945.31
2019-02-04T01:34:17.917Z,945.29
2019-02-04T01:35:18.629Z,945.32
2019-02-04T01:36:19.381Z,945.33
2019-02-04T01:37:20.092Z,945.35
2019-02-04T01:38:20.631Z,945.34
2019-02-04T01:39:21.610Z,945.31
2019-02-04T01:40:22.043Z,945.3
2019-02-04T01:41:22.460Z,945.33
2019-02-04T01:42:22.697Z,945.34
2019-02-04T01:43:23.152Z,945.32
2019-02-04T01:44:23.846Z,945.32
2019-02-04T01:45:24.852Z,945.35
2019-02-04T01:46:25.055Z,945.34
2019-02-04T01:47:25.858Z,945.38
2019-02-04T01:48:27.001Z,945.35
2019-02-04T01:49:27.418Z,945.36
2019-02-04T01:50:27.858Z,945.37
2019-02-04T01:51:28.548Z,945.37
2019-02-04T01:52:29.660Z,945.36
2019-02-04T01:53:30.052Z,945.37
2019-02-04T01:54:30.476Z,945.38
2019-02-04T01:55:31.619Z,945.38
2019-02-04T01:56:32.783Z,945.37
2019-02-04T01:57:33.198Z,945.4
2019-02-04T01:58:33.897Z,945.37
2019-02-04T01:59:35.043Z,945.43
2019-02-04T02:00:35.728Z,945.4
2019-02-04T02:01:37.214Z,945.4
2019-02-04T02:02:38.176Z,945.45
2019-02-04T02:03:38.877Z,945.45
2019-02-04T02:04:39.562Z,945.44
2019-02-04T02:05:40.268Z,945.45
2019-02-04T02:06:41.241Z,945.44
2019-02-04T02:07:41.937Z,945.4
2019-02-04T02:08:43.059Z,945.39
2019-02-04T02:09:43.339Z,945.45
2019-02-04T02:10:44.636Z,945.46
2019-02-04T02:11:45.100Z,945.5
2019-02-04T02:12:46.241Z,945.46
2019-02-04T02:13:46.660Z,945.49
2019-02-04T02:14:47.072Z,945.5
2019-02-04T02:15:47.614Z,945.5
2019-02-04T02:16:48.038Z,945.53
2019-02-04T02:17:48.391Z,945.48
2019-02-04T02:18:48.963Z,945.58
2019-02-04T02:19:49.214Z,945.52
2019-02-04T02:20:49.981Z,945.51
2019-02-04T02:21:50.393Z,945.56
2019-02-04T02:22:51.074Z,945.61
2019-02-04T02:23:51.902Z,945.61
2019-02-04T02:24:52.365Z,945.59
2019-02-04T02:25:53.364Z,945.62
2019-02-04T02:26:53.786Z,945.67
2019-02-04T02:27:54.680Z,945.62
2019-02-04T02:28:55.362Z,945.66
2019-02-04T02:29:56.621Z,945.61
2019-02-04T02:30:57.761Z,945.62
2019-02-04T02:31:58.215Z,945.62
2019-02-04T02:32:59.309Z,945.61
2019-02-04T02:34:00.078Z,945.63
2019-02-04T02:35:01.174Z,945.61
2019-02-04T02:36:01.947Z,945.6
2019-02-04T02:37:03.322Z,945.65
2019-02-04T02:38:03.589Z,945.62
2019-02-04T02:39:03.964Z,945.65
2019-02-04T02:40:04.683Z,945.65
2019-02-04T02:41:05.827Z,945.64
2019-02-04T02:42:06.521Z,945.6
2019-02-04T02:43:07.060Z,945.65
2019-02-04T02:44:08.090Z,945.6
2019-02-04T02:45:09.096Z,945.61
2019-02-04T02:46:09.361Z,945.59
2019-02-04T02:47:10.783Z,945.63
2019-02-04T02:48:11.768Z,945.62
2019-02-04T02:49:12.384Z,945.59
2019-02-04T02:50:13.134Z,945.65
2019-02-04T02:51:14.415Z,945.62
2019-02-04T02:52:15.396Z,945.66
2019-02-04T02:53:16.105Z,945.66
2019-02-04T02:54:17.120Z,945.62
2019-02-04T02:55:18.113Z,945.63
2019-02-04T02:56:19.177Z,945.58
2019-02-04T02:57:19.627Z,945.61
2019-02-04T02:58:20.617Z,945.59
2019-02-04T02:59:21.360Z,945.61
2019-02-04T03:00:22.056Z,945.58
2019-02-04T03:01:23.315Z,945.56
2019-02-04T03:02:24.025Z,945.54
2019-02-04T03:03:24.580Z,945.55
2019-02-04T03:04:25.001Z,945.56
2019-02-04T03:05:25.435Z,945.51
2019-02-04T03:06:26.597Z,945.54
2019-02-04T03:07:26.862Z,945.52
2019-02-04T03:08:27.279Z,945.49
2019-02-04T03:09:27.719Z,945.47
2019-02-04T03:10:28.714Z,945.5
2019-02-04T03:11:29.536Z,945.55
2019-02-04T03:12:30.128Z,945.53
2019-02-04T03:13:30.685Z,945.53
2019-02-04T03:14:30.976Z,945.53
2019-02-04T03:15:31.228Z,945.56
2019-02-04T03:16:32.046Z,945.57
2019-02-04T03:17:33.061Z,945.61
2019-02-04T03:18:34.468Z,945.59
2019-02-04T03:19:35.500Z,945.59
2019-02-04T03:20:36.918Z,945.58
2019-02-04T03:21:37.154Z,945.59
2019-02-04T03:22:37.876Z,945.62
2019-02-04T03:23:38.872Z,945.63
2019-02-04T03:24:39.854Z,945.64
2019-02-04T03:25:40.287Z,945.64
2019-02-04T03:26:41.253Z,945.64
2019-02-04T03:27:42.076Z,945.63
2019-02-04T03:28:43.344Z,945.66
2019-02-04T03:29:43.757Z,945.6
2019-02-04T03:30:44.971Z,945.61
2019-02-04T03:31:47.221Z,945.59
2019-02-04T03:32:48.133Z,945.61
2019-02-04T03:33:49.173Z,945.64
2019-02-04T03:34:49.931Z,945.6
2019-02-04T03:35:50.638Z,945.6
2019-02-04T03:36:51.066Z,945.59
2019-02-04T03:37:53.101Z,945.66
2019-02-04T03:38:53.466Z,945.62
2019-02-04T03:39:54.281Z,945.69
2019-02-04T03:40:55.314Z,945.67
2019-02-04T03:41:56.022Z,945.71
2019-02-04T03:42:57.190Z,945.68
2019-02-04T03:43:58.159Z,945.68
2019-02-04T03:44:58.877Z,945.67
2019-02-04T03:45:59.877Z,945.67
2019-02-04T03:47:01.378Z,945.67
2019-02-04T03:48:10.222Z,945.68
2019-02-04T03:48:14.432Z,945.66
2019-02-04T03:49:15.645Z,945.72
2019-02-04T03:50:16.222Z,945.73
2019-02-04T03:51:16.779Z,945.68
2019-02-04T03:52:17.039Z,945.72
2019-02-04T03:53:17.734Z,945.67
2019-02-04T03:54:18.523Z,945.7
2019-02-04T03:55:18.937Z,945.74
2019-02-04T03:56:19.197Z,945.72
2019-02-04T03:57:19.888Z,945.74
2019-02-04T03:58:21.200Z,945.76
2019-02-04T03:59:21.686Z,945.72
2019-02-04T04:00:22.843Z,945.79
2019-02-04T04:01:23.264Z,945.75
2019-02-04T04:02:24.298Z,945.77
2019-02-04T04:03:24.550Z,945.77
2019-02-04T04:04:24.970Z,945.76
2019-02-04T04:05:25.678Z,945.78
2019-02-04T04:06:26.804Z,945.76
2019-02-04T04:07:28.057Z,945.78
2019-02-04T04:08:28.861Z,945.79
2019-02-04T04:09:29.472Z,945.77
2019-02-04T04:10:30.178Z,945.81
2019-02-04T04:11:31.180Z,945.82
2019-02-04T04:12:32.165Z,945.82
2019-02-04T04:13:32.725Z,945.78
2019-02-04T04:14:33.431Z,945.82
2019-02-04T04:15:33.948Z,945.83
2019-02-04T04:16:34.582Z,945.86
2019-02-04T04:17:35.575Z,945.83
2019-02-04T04:18:36.068Z,945.85
2019-02-04T04:19:36.358Z,945.87
2019-02-04T04:20:37.052Z,945.89
2019-02-04T04:21:38.021Z,945.81
2019-02-04T04:22:38.723Z,945.81
2019-02-04T04:23:39.135Z,945.8
2019-02-04T04:24:40.226Z,945.83
2019-02-04T04:25:40.545Z,945.86
2019-02-04T04:26:41.236Z,945.84
2019-02-04T04:27:41.499Z,945.91
2019-02-04T04:28:41.745Z,945.9
2019-02-04T04:29:42.307Z,945.91
2019-02-04T04:30:42.725Z,945.91
2019-02-04T04:31:43.421Z,945.89
2019-02-04T04:32:44.727Z,945.89
2019-02-04T04:33:45.359Z,945.84
2019-02-04T04:34:45.499Z,945.87
2019-02-04T04:35:45.934Z,945.87
2019-02-04T04:36:46.906Z,945.9
2019-02-04T04:37:47.983Z,945.84
2019-02-04T04:38:48.499Z,945.86
2019-02-04T04:39:49.282Z,945.88
2019-02-04T04:40:49.745Z,945.89
2019-02-04T04:41:50.466Z,945.89
2019-02-04T04:42:51.291Z,945.91
2019-02-04T04:43:51.561Z,945.91
2019-02-04T04:44:51.973Z,945.91
2019-02-04T04:45:53.112Z,945.86
2019-02-04T04:46:54.249Z,945.89
2019-02-04T04:47:54.946Z,945.9
2019-02-04T04:48:56.124Z,945.92
2019-02-04T04:49:56.708Z,945.88
2019-02-04T04:50:57.706Z,945.92
2019-02-04T04:51:58.134Z,945.94
2019-02-04T04:52:59.268Z,945.99
2019-02-04T04:53:59.532Z,945.95
2019-02-04T04:55:00.865Z,945.95
2019-02-04T04:56:01.203Z,945.94
2019-02-04T04:57:01.924Z,945.96
2019-02-04T04:58:02.371Z,945.96
2019-02-04T04:59:03.494Z,945.93
2019-02-04T05:00:03.962Z,945.99
2019-02-04T05:01:04.938Z,945.97
2019-02-04T05:02:05.193Z,945.97
2019-02-04T05:03:06.331Z,945.99
2019-02-04T05:04:07.487Z,945.96
2019-02-04T05:05:07.923Z,946.02
2019-02-04T05:06:08.630Z,946.01
2019-02-04T05:07:09.158Z,946.05
2019-02-04T05:08:09.839Z,946.01
2019-02-04T05:09:10.543Z,946.03
2019-02-04T05:10:11.100Z,945.99
2019-02-04T05:11:11.798Z,946.01
2019-02-04T05:12:12.634Z,946.06
2019-02-04T05:13:13.793Z,946.08
2019-02-04T05:14:14.954Z,946.11
2019-02-04T05:15:15.381Z,946.09
2019-02-04T05:16:16.546Z,946.12
2019-02-04T05:17:17.219Z,946.19
2019-02-04T05:18:17.910Z,946.17
2019-02-04T05:19:18.899Z,946.2
2019-02-04T05:20:19.289Z,946.22
2019-02-04T05:21:19.997Z,946.23
2019-02-04T05:22:20.404Z,946.24
2019-02-04T05:23:21.091Z,946.22
2019-02-04T05:24:22.089Z,946.23
2019-02-04T05:25:23.059Z,946.24
2019-02-04T05:26:23.587Z,946.26
2019-02-04T05:27:24.292Z,946.25
2019-02-04T05:28:24.993Z,946.25
2019-02-04T05:29:25.699Z,946.27
2019-02-04T05:30:25.957Z,946.25
2019-02-04T05:31:26.538Z,946.24
2019-02-04T05:32:27.514Z,946.28
2019-02-04T05:33:28.307Z,946.29
2019-02-04T05:34:29.099Z,946.28
2019-02-04T05:35:30.085Z,946.28
2019-02-04T05:36:30.503Z,946.27
2019-02-04T05:37:30.710Z,946.31
2019-02-04T05:38:31.130Z,946.33
2019-02-04T05:39:31.558Z,946.38
2019-02-04T05:40:32.128Z,946.38
2019-02-04T05:41:32.826Z,946.37
2019-02-04T05:42:35.216Z,946.43
2019-02-04T05:43:35.944Z,946.47
2019-02-04T05:44:36.643Z,946.41
2019-02-04T05:45:37.070Z,946.43
2019-02-04T05:46:38.035Z,946.41
2019-02-04T05:47:38.283Z,946.44
2019-02-04T05:48:51.020Z,946.43
2019-02-04T05:49:51.578Z,946.46
2019-02-04T05:50:52.551Z,946.47
2019-02-04T05:51:55.751Z,946.44
2019-02-04T05:52:57.225Z,946.47
2019-02-04T05:53:58.353Z,946.46
2019-02-04T05:54:59.466Z,946.47
2019-02-04T05:56:00.013Z,946.52
2019-02-04T05:57:01.010Z,946.51
2019-02-04T05:58:02.259Z,946.49
2019-02-04T05:59:02.973Z,946.5
2019-02-04T06:00:04.122Z,946.56
2019-02-04T06:01:04.542Z,946.53
2019-02-04T06:02:05.264Z,946.54
2019-02-04T06:03:05.799Z,946.56
2019-02-04T06:04:06.221Z,946.58
2019-02-04T06:05:07.227Z,946.55
2019-02-04T06:06:07.932Z,946.57
2019-02-04T06:07:08.637Z,946.61
2019-02-04T06:08:09.789Z,946.6
2019-02-04T06:09:09.978Z,946.57
2019-02-04T06:10:10.559Z,946.6
2019-02-04T06:11:10.853Z,946.65
2019-02-04T06:12:11.838Z,946.64
2019-02-04T06:13:12.647Z,946.65
2019-02-04T06:14:13.076Z,946.69
2019-02-04T06:15:13.777Z,946.68
2019-02-04T06:16:14.233Z,946.68
2019-02-04T06:17:14.935Z,946.73
2019-02-04T06:18:16.362Z,946.69
2019-02-04T06:19:17.332Z,946.69
2019-02-04T06:20:17.549Z,946.7
2019-02-04T06:21:17.800Z,946.69
2019-02-04T06:22:18.931Z,946.73
2019-02-04T06:23:19.646Z,946.74
2019-02-04T06:24:20.611Z,946.78
2019-02-04T06:25:21.673Z,946.79
2019-02-04T06:26:22.043Z,946.83
2019-02-04T06:27:23.194Z,946.83
2019-02-04T06:28:26.156Z,946.84
2019-02-04T06:29:27.389Z,946.86
2019-02-04T06:30:27.734Z,946.9
2019-02-04T06:31:28.255Z,946.9
2019-02-04T06:32:28.553Z,946.9
2019-02-04T06:33:29.249Z,946.94
2019-02-04T06:34:29.472Z,946.92
2019-02-04T06:35:29.907Z,946.95
2019-02-04T06:36:30.610Z,946.97
2019-02-04T06:37:31.746Z,946.97
2019-02-04T06:38:32.367Z,946.98
2019-02-04T06:39:32.778Z,947
2019-02-04T06:40:33.059Z,947
2019-02-04T06:41:34.354Z,947.02
2019-02-04T06:42:34.863Z,947.02
2019-02-04T06:43:35.295Z,947.06
2019-02-04T06:44:36.483Z,947.03
2019-02-04T06:45:38.159Z,947.05
2019-02-04T06:46:38.447Z,947.04
2019-02-04T06:47:39.877Z,947.05
2019-02-04T06:48:40.864Z,947.06
2019-02-04T06:49:41.577Z,947.05
2019-02-04T06:50:41.829Z,947.04
2019-02-04T06:51:42.828Z,947.09
2019-02-04T06:52:43.602Z,947.12
2019-02-04T06:53:44.342Z,947.1
2019-02-04T06:54:45.306Z,947.14
2019-02-04T06:55:46.953Z,947.16
2019-02-04T06:56:48.271Z,947.13
2019-02-04T06:57:49.210Z,947.16
2019-02-04T06:58:49.766Z,947.15
2019-02-04T06:59:50.170Z,947.17
2019-02-04T07:00:50.642Z,947.14
2019-02-04T07:01:51.839Z,947.19
2019-02-04T07:02:53.077Z,947.17
2019-02-04T07:03:53.944Z,947.2
2019-02-04T07:04:54.974Z,947.18
2019-02-04T07:05:55.417Z,947.21
2019-02-04T07:06:55.836Z,947.2
2019-02-04T07:07:57.671Z,947.25
2019-02-04T07:08:09.006Z,947.23
2019-02-04T07:09:09.486Z,947.28
2019-02-04T07:10:10.121Z,947.29
2019-02-04T07:11:11.407Z,947.28
2019-02-04T07:12:13.255Z,947.3
2019-02-04T07:13:13.338Z,947.32
2019-02-04T07:14:14.510Z,947.32
2019-02-04T07:15:15.485Z,947.36
2019-02-04T07:16:16.577Z,947.36
2019-02-04T07:17:17.584Z,947.32
2019-02-04T07:18:18.148Z,947.29
2019-02-04T07:19:25.183Z,947.33
2019-02-04T07:19:30.670Z,947.24
2019-02-04T07:20:31.076Z,947.27
2019-02-04T07:21:32.348Z,947.26
2019-02-04T07:22:33.339Z,947.26
2019-02-04T07:23:34.044Z,947.32
2019-02-04T07:24:47.390Z,947.34
2019-02-04T07:25:47.281Z,947.33
2019-02-04T07:26:47.824Z,947.37
2019-02-04T07:27:48.562Z,947.38
2019-02-04T07:28:49.787Z,947.42
2019-02-04T07:29:50.412Z,947.39
2019-02-04T07:30:51.386Z,947.4
2019-02-04T07:31:52.582Z,947.4
2019-02-04T07:32:53.003Z,947.41
2019-02-04T07:33:53.830Z,947.4
2019-02-04T07:34:54.841Z,947.4
2019-02-04T07:35:55.814Z,947.39
2019-02-04T07:36:56.900Z,947.39
2019-02-04T07:37:57.407Z,947.4
2019-02-04T07:38:57.827Z,947.4
2019-02-04T07:39:58.819Z,947.45
2019-02-04T07:40:59.520Z,947.44
2019-02-04T07:42:00.504Z,947.42
2019-02-04T07:43:01.392Z,947.43
2019-02-04T07:44:02.612Z,947.44
2019-02-04T07:45:03.114Z,947.43
2019-02-04T07:46:03.515Z,947.43
2019-02-04T07:47:04.736Z,947.41
2019-02-04T07:48:05.120Z,947.42
2019-02-04T07:49:05.563Z,947.4
2019-02-04T07:50:06.371Z,947.4
2019-02-04T07:51:07.283Z,947.38
2019-02-04T07:52:07.922Z,947.4
2019-02-04T07:53:09.101Z,947.4
2019-02-04T07:54:09.526Z,947.35
2019-02-04T07:55:10.464Z,947.33
2019-02-04T07:56:10.995Z,947.34
2019-02-04T07:57:11.779Z,947.34
2019-02-04T07:58:12.783Z,947.29
2019-02-04T07:59:13.233Z,947.33
2019-02-04T08:00:14.258Z,947.35
2019-02-04T08:01:15.120Z,947.34
2019-02-04T08:02:15.587Z,947.36
2019-02-04T08:03:16.039Z,947.43
2019-02-04T08:04:16.894Z,947.43
2019-02-04T08:05:17.374Z,947.41
2019-02-04T08:06:18.230Z,947.46
2019-02-04T08:07:18.658Z,947.46
2019-02-04T08:08:19.573Z,947.48
2019-02-04T08:09:20.409Z,947.43
2019-02-04T08:10:20.749Z,947.48
2019-02-04T08:11:21.731Z,947.45
2019-02-04T08:12:22.838Z,947.44
2019-02-04T08:13:23.836Z,947.43
2019-02-04T08:14:24.824Z,947.46
2019-02-04T08:15:25.896Z,947.49
2019-02-04T08:16:26.737Z,947.46
2019-02-04T08:17:27.802Z,947.48
2019-02-04T08:18:29.144Z,947.49
2019-02-04T08:19:30.173Z,947.4
2019-02-04T08:20:30.868Z,947.4
2019-02-04T08:21:31.630Z,947.39
2019-02-04T08:22:32.338Z,947.37
2019-02-04T08:23:33.683Z,947.34
2019-02-04T08:24:34.820Z,947.38
2019-02-04T08:25:35.354Z,947.35
2019-02-04T08:26:38.178Z,947.32
2019-02-04T08:26:48.873Z,947.34
2019-02-04T08:27:49.616Z,947.34
2019-02-04T08:28:50.641Z,947.28
2019-02-04T08:29:51.396Z,947.29
2019-02-04T08:30:52.381Z,947.28
2019-02-04T08:31:53.169Z,947.27
2019-02-04T08:32:53.622Z,947.3
2019-02-04T08:33:55.131Z,947.31
2019-02-04T08:34:55.923Z,947.28
2019-02-04T08:35:56.722Z,947.29
2019-02-04T08:36:57.760Z,947.29
2019-02-04T08:37:58.392Z,947.3
2019-02-04T08:38:58.960Z,947.3
2019-02-04T08:39:59.876Z,947.3
2019-02-04T08:41:00.299Z,947.36
2019-02-04T08:42:01.137Z,947.42
2019-02-04T08:43:02.269Z,947.43
2019-02-04T08:44:03.394Z,947.45
2019-02-04T08:45:04.140Z,947.43
2019-02-04T08:46:05.314Z,947.38
2019-02-04T08:47:06.559Z,947.37
2019-02-04T08:48:06.689Z,947.36
2019-02-04T08:49:07.453Z,947.38
2019-02-04T08:50:08.302Z,947.36
2019-02-04T08:51:09.641Z,947.32
2019-02-04T08:52:10.677Z,947.3
2019-02-04T08:53:11.427Z,947.31
2019-02-04T08:54:12.024Z,947.36
2019-02-04T08:55:13.375Z,947.33
2019-02-04T08:56:13.951Z,947.27
2019-02-04T08:57:14.449Z,947.31
2019-02-04T08:58:15.068Z,947.34
2019-02-04T08:59:16.196Z,947.3
2019-02-04T09:00:16.468Z,947.27
2019-02-04T09:01:17.257Z,947.27
2019-02-04T09:02:18.320Z,947.24
2019-02-04T09:03:18.989Z,947.21
2019-02-04T09:04:19.715Z,947.21
2019-02-04T09:05:20.480Z,947.21
2019-02-04T09:06:21.320Z,947.14
2019-02-04T09:07:21.992Z,947.14
2019-02-04T09:08:23.174Z,947.08
2019-02-04T09:09:24.345Z,947.08
2019-02-04T09:10:25.432Z,947.08
2019-02-04T09:11:25.686Z,946.99
2019-02-04T09:12:26.265Z,946.99
2019-02-04T09:13:27.076Z,947.02
2019-02-04T09:14:27.968Z,947.04
2019-02-04T09:15:28.438Z,947.07
2019-02-04T09:16:30.572Z,947.03
2019-02-04T09:16:41.895Z,947.03
2019-02-04T09:16:53.574Z,947.05
2019-02-04T09:17:05.199Z,947.03
2019-02-04T09:17:17.912Z,947.01
2019-02-04T09:18:18.167Z,947
2019-02-04T09:19:18.413Z,947
2019-02-04T09:20:19.457Z,947
2019-02-04T09:21:19.686Z,946.97
2019-02-04T09:22:20.862Z,946.97
2019-02-04T09:23:21.099Z,946.99
2019-02-04T09:24:22.137Z,947.01
2019-02-04T09:25:23.194Z,947.06
2019-02-04T09:26:24.046Z,947.04
2019-02-04T09:27:24.377Z,947.06
2019-02-04T09:28:24.558Z,947.09
2019-02-04T09:29:25.591Z,947.05
2019-02-04T09:30:25.830Z,947.04
2019-02-04T09:31:28.309Z,947.06
2019-02-04T09:31:38.668Z,947.09
2019-02-04T09:32:40.621Z,947.09
2019-02-04T09:33:41.093Z,947.11
2019-02-04T09:34:41.558Z,947.17
2019-02-04T09:35:42.465Z,947.16
2019-02-04T09:36:43.627Z,947.14
2019-02-04T09:37:44.327Z,947.14
2019-02-04T09:38:45.217Z,947.14
2019-02-04T09:39:46.866Z,947.17
2019-02-04T09:40:47.659Z,947.14
2019-02-04T09:41:48.200Z,947.08
2019-02-04T09:42:48.809Z,947.09
2019-02-04T09:43:49.210Z,947.08
2019-02-04T09:44:50.199Z,947.07
2019-02-04T09:45:51.265Z,947.12
2019-02-04T09:46:51.985Z,947.11
2019-02-04T09:47:52.755Z,947.19
2019-02-04T09:48:53.805Z,947.13
2019-02-04T09:49:54.336Z,947.15
2019-02-04T09:50:55.040Z,947.16
2019-02-04T09:51:56.116Z,947.1
2019-02-04T09:52:57.807Z,947.08
2019-02-04T09:53:58.856Z,947.06
2019-02-04T09:54:59.789Z,947.05
2019-02-04T09:56:00.865Z,947.03
2019-02-04T09:57:01.354Z,947.01
2019-02-04T09:58:02.396Z,947.01
2019-02-04T09:59:03.156Z,947
2019-02-04T10:00:03.880Z,947.04
2019-02-04T10:01:04.870Z,947.04
2019-02-04T10:02:07.457Z,946.99
2019-02-04T10:02:17.463Z,947.03
2019-02-04T10:03:18.995Z,946.99
2019-02-04T10:04:20.384Z,946.99
2019-02-04T10:05:21.525Z,946.97
2019-02-04T10:06:22.683Z,946.93
2019-02-04T10:07:23.391Z,946.91
2019-02-04T10:08:24.211Z,946.91
2019-02-04T10:08:36.638Z,946.89
2019-02-04T10:09:36.687Z,946.9
2019-02-04T10:10:37.394Z,946.86
2019-02-04T10:11:37.827Z,946.83
2019-02-04T10:12:38.083Z,946.77
2019-02-04T10:13:39.226Z,946.68
2019-02-04T10:14:39.611Z,946.71
2019-02-04T10:15:40.802Z,946.68
2019-02-04T10:16:41.060Z,946.68
2019-02-04T10:17:41.502Z,946.67
2019-02-04T10:18:42.699Z,946.65
2019-02-04T10:19:43.602Z,946.6
2019-02-04T10:20:44.806Z,946.6
2019-02-04T10:21:45.330Z,946.62
2019-02-04T10:22:46.361Z,946.65
2019-02-04T10:23:47.509Z,946.7
2019-02-04T10:24:48.219Z,946.72
2019-02-04T10:25:49.197Z,946.67
2019-02-04T10:26:50.322Z,946.67
2019-02-04T10:27:51.272Z,946.67
2019-02-04T10:28:51.591Z,946.69
2019-02-04T10:29:52.513Z,946.69
2019-02-04T10:30:52.725Z,946.71
2019-02-04T10:31:54.115Z,946.7
2019-02-04T10:32:55.031Z,946.72
2019-02-04T10:33:55.633Z,946.71
2019-02-04T10:34:56.170Z,946.73
2019-02-04T10:35:56.781Z,946.7
2019-02-04T10:36:57.734Z,946.64
2019-02-04T10:37:58.904Z,946.69
2019-02-04T10:38:59.266Z,946.65
2019-02-04T10:40:00.370Z,946.63
2019-02-04T10:41:00.882Z,946.69
2019-02-04T10:42:01.940Z,946.69
2019-02-04T10:43:02.342Z,946.76
2019-02-04T10:44:02.989Z,946.76
2019-02-04T10:45:03.752Z,946.79
2019-02-04T10:46:05.462Z,946.74
2019-02-04T10:47:06.047Z,946.77
2019-02-04T10:48:07.203Z,946.77
2019-02-04T10:49:08.837Z,946.76
2019-02-04T10:50:09.229Z,946.79
2019-02-04T10:51:09.523Z,946.76
2019-02-04T10:52:10.363Z,946.71
2019-02-04T10:53:10.961Z,946.68
2019-02-04T10:54:11.308Z,946.64
2019-02-04T10:55:12.121Z,946.68
2019-02-04T10:56:16.222Z,946.71
2019-02-04T10:57:14.469Z,946.66
2019-02-04T10:58:15.896Z,946.66
2019-02-04T10:59:16.712Z,946.64
2019-02-04T11:00:17.525Z,946.61
2019-02-04T11:01:18.360Z,946.63
2019-02-04T11:02:19.415Z,946.6
2019-02-04T11:03:20.953Z,946.56
2019-02-04T11:04:22.080Z,946.53
2019-02-04T11:05:22.642Z,946.52
2019-02-04T11:06:25.287Z,946.49
2019-02-04T11:07:26.775Z,946.48
2019-02-04T11:08:28.280Z,946.51
2019-02-04T11:09:28.827Z,946.5
2019-02-04T11:10:30.298Z,946.47
2019-02-04T11:11:31.007Z,946.47
2019-02-04T11:12:32.014Z,946.45
2019-02-04T11:13:32.874Z,946.4
2019-02-04T11:14:33.234Z,946.4
2019-02-04T11:15:34.197Z,946.37
2019-02-04T11:16:35.022Z,946.32
2019-02-04T11:17:37.112Z,946.33
2019-02-04T11:18:37.323Z,946.27
2019-02-04T11:19:37.618Z,946.22
2019-02-04T11:20:38.824Z,946.19
2019-02-04T11:21:39.179Z,946.19
2019-02-04T11:22:39.766Z,946.22
2019-02-04T11:23:40.384Z,946.23
2019-02-04T11:24:42.581Z,946.21
2019-02-04T11:24:53.233Z,946.22
2019-02-04T11:25:05.465Z,946.19
2019-02-04T11:25:17.755Z,946.19
2019-02-04T11:25:29.000Z,946.21
2019-02-04T11:25:40.683Z,946.21
2019-02-04T11:26:41.978Z,946.27
2019-02-04T11:27:43.983Z,946.23
2019-02-04T11:27:55.289Z,946.26
2019-02-04T11:28:56.853Z,946.21
2019-02-04T11:29:06.733Z,946.25
2019-02-04T11:30:07.540Z,946.19
2019-02-04T11:31:08.936Z,946.16
2019-02-04T11:32:09.806Z,946.18
2019-02-04T11:33:11.178Z,946.14
2019-02-04T11:34:11.818Z,946.18
2019-02-04T11:35:12.609Z,946.14
2019-02-04T11:36:13.259Z,946.18
2019-02-04T11:37:14.531Z,946.22
2019-02-04T11:37:26.752Z,946.21
2019-02-04T11:37:38.483Z,946.2
2019-02-04T11:38:40.096Z,946.22
2019-02-04T11:39:41.614Z,946.18
2019-02-04T11:40:45.767Z,946.17
2019-02-04T11:41:45.720Z,946.15
2019-02-04T11:41:57.014Z,946.16
2019-02-04T11:42:08.749Z,946.13
2019-02-04T11:43:09.460Z,946.13
2019-02-04T11:44:10.129Z,946.14
2019-02-04T11:45:10.808Z,946.15
2019-02-04T11:46:11.627Z,946.14
2019-02-04T11:47:11.890Z,946.09
2019-02-04T11:48:13.060Z,946.14
2019-02-04T11:49:14.041Z,946.06
2019-02-04T11:50:15.332Z,946.04
2019-02-04T11:51:15.777Z,946.01
2019-02-04T11:52:17.183Z,946.01
2019-02-04T11:52:28.774Z,946
2019-02-04T11:52:41.043Z,945.99
2019-02-04T11:53:32.694Z,945.98
2019-02-04T11:53:41.238Z,945.99
2019-02-04T11:54:41.498Z,946.02
2019-02-04T11:55:41.943Z,946
2019-02-04T11:56:44.359Z,946.01
2019-02-04T11:56:54.831Z,946.01
2019-02-04T11:57:55.702Z,946.01
2019-02-04T11:58:59.166Z,945.99
2019-02-04T11:59:08.799Z,946.03
2019-02-04T12:00:10.382Z,945.99
2019-02-04T12:01:11.058Z,945.92
2019-02-04T12:02:12.952Z,945.96
2019-02-04T12:03:13.391Z,945.97
2019-02-04T12:04:14.150Z,945.92
2019-02-04T12:05:15.316Z,945.92
2019-02-04T12:06:18.354Z,945.91
2019-02-04T12:07:18.754Z,945.9
2019-02-04T12:08:19.467Z,945.9
2019-02-04T12:09:20.223Z,945.9
2019-02-04T12:10:20.546Z,945.85
2019-02-04T12:11:21.278Z,945.85
2019-02-04T12:12:21.632Z,945.82
2019-02-04T12:13:22.827Z,945.83
2019-02-04T12:14:23.290Z,945.83
2019-02-04T12:15:24.023Z,945.81
2019-02-04T12:16:24.789Z,945.77
2019-02-04T12:17:25.846Z,945.73
2019-02-04T12:18:26.905Z,945.74
2019-02-04T12:19:28.022Z,945.76
2019-02-04T12:20:29.042Z,945.73